Time;durP1;ratioP1;P1;durP2;ratioP2;P2;SDS_P1;SDS_P2;PMS_P1;PMS_P2;Temp;Humidity;BMP_temperature;BMP_pressure;BME280_temperature;BME280_humidity;BME280_pressure;Samples;Min_cycle;Max_cycle;Signal;HPM_P1;HPM_P2
2020/12/15 00:02:24;;;;;;;10.40;8.53;;;6.00;99.90;;;;;;5067300;28;20237;-60
2020/12/15 00:04:50;;;;;;;9.57;8.57;;;5.90;99.90;;;;;;5062719;28;20704;-58
2020/12/15 00:07:15;;;;;;;10.30;8.37;;;5.90;99.90;;;;;;5060145;28;20603;-53
2020/12/15 00:09:41;;;;;;;8.63;7.37;;;5.90;99.90;;;;;;5069991;28;20173;-59
2020/12/15 00:12:06;;;;;;;8.73;7.83;;;5.90;99.90;;;;;;5056655;28;20198;-60
2020/12/15 00:14:32;;;;;;;10.33;7.90;;;5.90;99.90;;;;;;5065975;28;20179;-52
2020/12/15 00:16:58;;;;;;;12.20;8.13;;;5.90;99.90;;;;;;5063881;28;20202;-52
2020/12/15 00:19:24;;;;;;;9.13;7.53;;;5.90;99.90;;;;;;5058863;28;20659;-61
2020/12/15 00:21:50;;;;;;;7.87;7.07;;;5.90;99.90;;;;;;5069647;28;20212;-59
2020/12/15 00:24:15;;;;;;;8.93;7.87;;;5.90;99.90;;;;;;5057593;28;20201;-61
2020/12/15 00:26:41;;;;;;;10.90;8.60;;;5.80;99.90;;;;;;5064802;28;20259;-53
2020/12/15 00:29:06;;;;;;;10.43;8.23;;;5.90;99.90;;;;;;5064960;28;20740;-56
2020/12/15 00:31:36;;;;;;;11.50;9.03;;;5.90;99.90;;;;;;5057701;28;20265;-60
2020/12/15 00:34:02;;;;;;;9.93;8.73;;;5.90;99.90;;;;;;5069609;28;20582;-61
2020/12/15 00:36:28;;;;;;;10.47;8.83;;;5.90;99.90;;;;;;5059675;28;20178;-53
2020/12/15 00:38:54;;;;;;;10.83;8.33;;;5.90;99.90;;;;;;5062851;28;20312;-52
2020/12/15 00:41:20;;;;;;;9.70;8.20;;;5.90;99.90;;;;;;5066902;28;20182;-62
2020/12/15 00:43:46;;;;;;;10.00;8.10;;;5.90;99.90;;;;;;5056385;28;20229;-54
2020/12/15 00:46:16;;;;;;;9.87;7.67;;;6.00;99.90;;;;;;5069427;28;20625;-60
2020/12/15 00:48:42;;;;;;;10.47;7.77;;;5.90;99.90;;;;;;5064876;28;20747;-52
2020/12/15 00:51:12;;;;;;;8.00;7.20;;;5.90;99.90;;;;;;5064557;28;20206;-53
2020/12/15 00:53:38;;;;;;;9.17;7.37;;;5.90;99.90;;;;;;5072628;28;20645;-53
2020/12/15 00:56:05;;;;;;;8.67;7.07;;;5.80;99.90;;;;;;5059624;28;20197;-52
2020/12/15 00:58:30;;;;;;;10.10;7.87;;;5.80;99.90;;;;;;5069389;28;20285;-56
2020/12/15 01:00:56;;;;;;;9.10;8.00;;;5.80;99.90;;;;;;5066190;28;20229;-54
2020/12/15 01:03:21;;;;;;;9.90;8.00;;;5.90;99.90;;;;;;5075057;28;20182;-55
2020/12/15 01:05:47;;;;;;;9.40;7.77;;;5.90;99.90;;;;;;5074733;28;20175;-61
2020/12/15 01:08:12;;;;;;;9.93;7.60;;;5.90;99.90;;;;;;5076655;28;20197;-61
2020/12/15 01:10:38;;;;;;;8.63;7.20;;;5.90;99.90;;;;;;5076064;28;20201;-58
2020/12/15 01:13:03;;;;;;;9.23;7.90;;;5.80;99.90;;;;;;5076700;28;20178;-62
2020/12/15 01:15:29;;;;;;;11.77;7.70;;;5.80;99.90;;;;;;5076289;28;20232;-58
2020/12/15 01:17:55;;;;;;;8.70;6.93;;;5.80;99.90;;;;;;5076656;28;20666;-54
2020/12/15 01:20:20;;;;;;;8.83;7.10;;;5.90;99.90;;;;;;5076799;28;20174;-57
2020/12/15 01:22:46;;;;;;;7.70;6.83;;;5.90;99.90;;;;;;5076740;28;20171;-54
2020/12/15 01:25:11;;;;;;;8.30;7.27;;;5.90;99.90;;;;;;5076036;28;20689;-55
2020/12/15 01:27:37;;;;;;;8.83;7.47;;;5.90;99.90;;;;;;5075919;28;20194;-60
2020/12/15 01:30:03;;;;;;;9.03;7.37;;;5.80;99.90;;;;;;5053834;28;20191;-52
2020/12/15 01:32:29;;;;;;;8.30;7.07;;;5.90;99.90;;;;;;5034906;28;20635;-52
2020/12/15 01:34:54;;;;;;;7.67;6.57;;;5.90;99.90;;;;;;5035989;28;20263;-53
2020/12/15 01:37:20;;;;;;;7.80;6.57;;;5.90;99.90;;;;;;5035890;28;20200;-54
2020/12/15 01:39:45;;;;;;;7.03;6.33;;;5.80;99.90;;;;;;5035715;28;20224;-57
2020/12/15 01:42:11;;;;;;;9.10;6.90;;;5.80;99.90;;;;;;5035893;28;20196;-52
2020/12/15 01:44:37;;;;;;;8.50;7.10;;;5.80;99.90;;;;;;5035610;28;20674;-59
2020/12/15 01:47:03;;;;;;;7.23;6.40;;;5.80;99.90;;;;;;5035575;28;20602;-52
2020/12/15 01:49:29;;;;;;;6.47;5.70;;;5.70;99.90;;;;;;5035748;28;20172;-51
2020/12/15 01:51:54;;;;;;;7.73;6.10;;;5.70;99.90;;;;;;5036156;28;20167;-56
2020/12/15 01:54:20;;;;;;;6.57;5.60;;;5.70;99.90;;;;;;5035437;28;20225;-61
2020/12/15 01:56:46;;;;;;;6.57;5.47;;;5.60;99.90;;;;;;5036309;28;20195;-58
2020/12/15 01:59:14;;;;;;;7.00;6.03;;;5.60;99.90;;;;;;5034562;28;20199;-61
2020/12/15 02:01:45;;;;;;;6.83;5.93;;;5.40;99.90;;;;;;5035697;28;20570;-58
2020/12/15 02:04:11;;;;;;;5.90;4.97;;;5.30;99.90;;;;;;5035958;28;20292;-52
2020/12/15 02:06:37;;;;;;;5.27;4.77;;;5.20;99.90;;;;;;5035304;28;20669;-52
2020/12/15 02:09:07;;;;;;;6.20;5.60;;;5.20;99.90;;;;;;5034264;28;20179;-60
2020/12/15 02:11:33;;;;;;;6.53;5.70;;;5.30;99.90;;;;;;5035150;28;20654;-53
2020/12/15 02:13:58;;;;;;;5.60;4.80;;;5.30;99.90;;;;;;5035514;28;20261;-60
2020/12/15 02:16:24;;;;;;;6.30;5.50;;;5.40;99.90;;;;;;5035083;28;20623;-53
2020/12/15 02:18:50;;;;;;;6.17;5.30;;;5.30;99.90;;;;;;5035545;28;20176;-58
2020/12/15 02:21:15;;;;;;;8.37;6.33;;;5.20;99.90;;;;;;5035916;28;20171;-59
2020/12/15 02:23:41;;;;;;;7.40;6.00;;;5.20;99.90;;;;;;5034796;28;20200;-61
2020/12/15 02:26:08;;;;;;;6.50;5.57;;;5.20;99.90;;;;;;5034822;28;20200;-53
2020/12/15 02:28:34;;;;;;;6.47;5.53;;;5.20;99.90;;;;;;5035178;28;20211;-61
2020/12/15 02:31:00;;;;;;;7.60;6.03;;;5.20;99.90;;;;;;5035573;28;20226;-60
2020/12/15 02:33:25;;;;;;;7.37;6.07;;;5.30;99.90;;;;;;5035716;28;20504;-59
2020/12/15 02:35:54;;;;;;;6.73;5.93;;;5.40;99.90;;;;;;5034874;28;20620;-51
2020/12/15 02:38:19;;;;;;;7.93;6.50;;;5.40;99.90;;;;;;5034756;28;20200;-60
2020/12/15 02:40:45;;;;;;;7.63;6.60;;;5.40;99.90;;;;;;5034846;28;20191;-52
2020/12/15 02:43:11;;;;;;;8.43;7.23;;;5.50;99.90;;;;;;5034748;28;20187;-61
2020/12/15 02:45:37;;;;;;;10.43;7.97;;;5.20;99.90;;;;;;5035031;28;20180;-60
2020/12/15 02:48:02;;;;;;;7.93;6.83;;;5.00;99.90;;;;;;5035236;28;20517;-61
2020/12/15 02:50:28;;;;;;;9.37;7.27;;;4.90;99.90;;;;;;5034634;28;20172;-60
2020/12/15 02:52:53;;;;;;;8.77;7.10;;;4.90;99.90;;;;;;5034368;28;20175;-51
2020/12/15 02:55:19;;;;;;;7.47;6.40;;;5.00;99.90;;;;;;5034518;28;20180;-59
2020/12/15 02:57:51;;;;;;;10.20;7.87;;;5.10;99.90;;;;;;5034543;28;20199;-52
2020/12/15 03:00:18;;;;;;;7.53;6.50;;;5.10;99.90;;;;;;5034760;28;20271;-53
2020/12/15 03:02:46;;;;;;;6.80;6.10;;;5.20;99.90;;;;;;5034990;28;20186;-53
2020/12/15 03:05:12;;;;;;;7.43;6.07;;;5.30;99.90;;;;;;5034184;28;20204;-55
2020/12/15 03:07:38;;;;;;;7.80;6.53;;;5.30;99.90;;;;;;5034095;28;20202;-58
2020/12/15 03:10:06;;;;;;;8.90;7.23;;;5.30;99.90;;;;;;5033658;28;20172;-53
2020/12/15 03:12:31;;;;;;;8.33;7.10;;;5.40;99.90;;;;;;5034595;28;20180;-54
2020/12/15 03:14:57;;;;;;;8.77;6.60;;;5.40;99.90;;;;;;5034701;28;20180;-60
2020/12/15 03:17:22;;;;;;;7.80;6.30;;;5.50;99.90;;;;;;5034075;28;20203;-61
2020/12/15 03:19:48;;;;;;;7.07;5.90;;;5.50;99.90;;;;;;5016288;28;20175;-60
2020/12/15 03:22:14;;;;;;;7.90;6.63;;;5.60;99.90;;;;;;5034363;28;20179;-58
2020/12/15 03:24:40;;;;;;;7.23;6.40;;;5.60;99.90;;;;;;5033644;28;20183;-54
2020/12/15 03:27:06;;;;;;;8.03;6.60;;;5.60;99.90;;;;;;5033993;28;20202;-58
2020/12/15 03:29:32;;;;;;;8.83;7.63;;;5.70;99.90;;;;;;5033876;28;20164;-58
2020/12/15 03:31:57;;;;;;;8.50;6.53;;;5.70;99.90;;;;;;5034493;28;20168;-61
2020/12/15 03:34:23;;;;;;;7.53;6.10;;;5.60;99.90;;;;;;5034241;28;20497;-62
2020/12/15 03:36:48;;;;;;;8.37;6.90;;;5.60;99.90;;;;;;5033952;28;20199;-51
2020/12/15 03:39:14;;;;;;;8.23;7.27;;;5.50;99.90;;;;;;5034081;28;20182;-51
2020/12/15 03:41:40;;;;;;;7.80;6.77;;;5.30;99.90;;;;;;5034044;28;20176;-52
2020/12/15 03:44:06;;;;;;;7.60;6.40;;;5.30;99.90;;;;;;5034339;28;20242;-57
2020/12/15 03:46:31;;;;;;;8.20;6.97;;;5.30;99.90;;;;;;5033551;28;20584;-51
2020/12/15 03:48:57;;;;;;;9.20;6.90;;;5.20;99.90;;;;;;5034262;28;20190;-60
2020/12/15 03:51:22;;;;;;;20.17;15.30;;;5.20;99.90;;;;;;5033684;28;20229;-61
2020/12/15 03:53:49;;;;;;;12.03;9.43;;;5.20;99.90;;;;;;5033958;28;20186;-57
2020/12/15 03:56:14;;;;;;;10.20;8.43;;;5.20;99.90;;;;;;5033842;28;20258;-52
2020/12/15 03:58:41;;;;;;;13.43;10.93;;;5.30;99.90;;;;;;5052723;28;20233;-51
2020/12/15 04:01:07;;;;;;;13.70;10.00;;;5.40;99.90;;;;;;5054185;28;20214;-53
2020/12/15 04:03:32;;;;;;;18.13;10.93;;;5.50;99.90;;;;;;5054075;28;20654;-59
2020/12/15 04:05:58;;;;;;;16.77;13.70;;;5.60;99.90;;;;;;5053422;28;20209;-58
2020/12/15 04:08:25;;;;;;;21.37;16.20;;;5.60;99.90;;;;;;5053492;28;20187;-61
2020/12/15 04:10:52;;;;;;;22.50;17.50;;;5.40;99.90;;;;;;5053599;28;20242;-53
2020/12/15 04:13:18;;;;;;;21.20;17.30;;;5.40;99.90;;;;;;5053564;28;20665;-53
2020/12/15 04:15:44;;;;;;;24.23;18.17;;;5.30;99.90;;;;;;5053280;28;20171;-52
2020/12/15 04:18:09;;;;;;;30.63;21.07;;;5.30;99.90;;;;;;5053375;28;20198;-60
2020/12/15 04:20:35;;;;;;;23.27;17.10;;;5.20;99.90;;;;;;5053571;28;20171;-52
2020/12/15 04:23:00;;;;;;;20.00;15.63;;;5.20;99.90;;;;;;5057232;28;20168;-55
2020/12/15 04:25:26;;;;;;;23.90;17.33;;;5.30;99.90;;;;;;5057158;28;20711;-59
2020/12/15 04:27:52;;;;;;;21.20;15.87;;;5.20;99.90;;;;;;5056298;28;20679;-60
2020/12/15 04:30:17;;;;;;;20.50;14.33;;;5.00;99.90;;;;;;5057717;28;20622;-53
2020/12/15 04:32:43;;;;;;;18.33;14.37;;;5.00;99.90;;;;;;5056891;28;20580;-56
2020/12/15 04:35:08;;;;;;;22.37;17.03;;;5.10;99.90;;;;;;5057126;28;20503;-54
2020/12/15 04:37:34;;;;;;;25.33;18.10;;;5.10;99.90;;;;;;5057168;28;20199;-59
2020/12/15 04:40:00;;;;;;;24.50;17.80;;;4.90;99.90;;;;;;5057192;28;20183;-54
2020/12/15 04:42:25;;;;;;;23.07;17.03;;;4.90;99.90;;;;;;5057608;28;20221;-60
2020/12/15 04:44:52;;;;;;;22.67;17.73;;;5.10;99.90;;;;;;5056494;28;20195;-57
2020/12/15 04:47:26;;;;;;;20.27;16.33;;;5.10;99.90;;;;;;5056857;28;20638;-61
2020/12/15 04:50:05;;;;;;;23.23;17.57;;;5.20;99.90;;;;;;5056701;28;20223;-53
2020/12/15 04:52:57;;;;;;;23.07;17.23;;;5.10;99.90;;;;;;5056722;28;20155;-52
2020/12/15 04:55:26;;;;;;;24.80;19.40;;;5.20;99.90;;;;;;5056247;28;20175;-61
2020/12/15 04:57:58;;;;;;;24.57;17.77;;;5.20;99.90;;;;;;5056704;28;20286;-55
2020/12/15 05:00:24;;;;;;;33.20;23.77;;;5.20;99.90;;;;;;5056736;28;20481;-54
2020/12/15 05:02:52;;;;;;;26.80;19.67;;;4.90;99.90;;;;;;5065846;28;20179;-51
2020/12/15 05:05:19;;;;;;;26.23;19.53;;;4.90;99.90;;;;;;5056359;28;20203;-56
2020/12/15 05:07:45;;;;;;;28.13;20.90;;;4.80;99.90;;;;;;5071519;28;20688;-57
2020/12/15 05:10:13;;;;;;;30.17;21.63;;;4.80;99.90;;;;;;5052722;28;20237;-61
2020/12/15 05:12:39;;;;;;;27.00;20.43;;;4.80;99.90;;;;;;5070197;28;20160;-55
2020/12/15 05:15:16;;;;;;;27.70;21.03;;;4.80;99.90;;;;;;5065704;28;20192;-53
2020/12/15 05:17:43;;;;;;;28.50;20.47;;;4.80;99.90;;;;;;5061186;28;20589;-51
2020/12/15 05:20:09;;;;;;;27.23;20.60;;;5.00;99.90;;;;;;5072358;28;20655;-53
2020/12/15 05:22:38;;;;;;;27.00;20.07;;;5.10;99.90;;;;;;5059553;28;20187;-59
2020/12/15 05:25:03;;;;;;;25.07;19.73;;;5.20;99.90;;;;;;5055713;28;20617;-59
2020/12/15 05:27:32;;;;;;;26.10;20.03;;;5.30;99.90;;;;;;5054816;28;20273;-56
2020/12/15 05:30:08;;;;;;;28.07;20.73;;;5.30;99.90;;;;;;5054714;28;20271;-58
2020/12/15 05:32:35;;;;;;;30.20;21.60;;;5.20;99.90;;;;;;5055461;28;20176;-60
2020/12/15 05:35:08;;;;;;;28.63;20.87;;;5.00;99.90;;;;;;5055350;28;20172;-53
2020/12/15 05:37:34;;;;;;;31.30;23.33;;;5.00;99.90;;;;;;5056046;28;20209;-51
2020/12/15 05:40:01;;;;;;;33.53;23.17;;;4.90;99.90;;;;;;5055998;28;20175;-52
2020/12/15 05:42:27;;;;;;;30.17;20.97;;;4.80;99.90;;;;;;5055996;28;20179;-61
2020/12/15 05:44:55;;;;;;;29.53;21.70;;;4.70;99.90;;;;;;5056194;28;20202;-52
2020/12/15 05:47:23;;;;;;;30.00;21.63;;;4.70;99.90;;;;;;5056202;28;20671;-54
2020/12/15 05:49:52;;;;;;;30.90;21.47;;;4.80;99.90;;;;;;5055625;28;20171;-57
2020/12/15 05:52:25;;;;;;;25.70;19.50;;;4.80;99.90;;;;;;5055822;28;20176;-51
2020/12/15 05:54:51;;;;;;;32.90;22.50;;;4.80;99.90;;;;;;5055440;28;20261;-52
2020/12/15 05:57:22;;;;;;;29.93;21.97;;;4.70;99.90;;;;;;5056000;28;20207;-53
2020/12/15 05:59:47;;;;;;;30.77;21.63;;;4.50;99.90;;;;;;5055448;28;20607;-53
2020/12/15 06:02:14;;;;;;;31.40;21.53;;;4.40;99.90;;;;;;5051846;28;20215;-51
2020/12/15 06:04:39;;;;;;;34.17;23.73;;;4.40;99.90;;;;;;5035349;28;20292;-60
2020/12/15 06:07:07;;;;;;;32.87;21.97;;;4.40;99.90;;;;;;5035608;28;20219;-61
2020/12/15 06:09:34;;;;;;;28.30;20.13;;;4.40;99.90;;;;;;5035399;28;20495;-55
2020/12/15 06:12:00;;;;;;;31.27;20.47;;;4.40;99.90;;;;;;5035548;28;20194;-61
2020/12/15 06:14:27;;;;;;;28.50;20.67;;;4.30;99.90;;;;;;5035167;28;20184;-52
2020/12/15 06:16:53;;;;;;;32.67;21.63;;;4.30;99.90;;;;;;5035325;28;20191;-53
2020/12/15 06:19:21;;;;;;;26.93;20.07;;;4.40;99.90;;;;;;5034558;28;20223;-58
2020/12/15 06:21:56;;;;;;;31.53;21.10;;;4.40;99.90;;;;;;5035571;28;20242;-55
2020/12/15 06:24:28;;;;;;;27.97;20.20;;;4.50;99.90;;;;;;5034686;28;20227;-52
2020/12/15 06:27:01;;;;;;;28.50;19.90;;;4.50;99.90;;;;;;5034879;28;20550;-57
2020/12/15 06:29:29;;;;;;;30.43;19.83;;;4.50;99.90;;;;;;5035636;28;20175;-52
2020/12/15 06:31:56;;;;;;;27.70;20.03;;;4.40;99.90;;;;;;5035500;28;20224;-61
2020/12/15 06:34:26;;;;;;;29.40;20.50;;;4.40;99.90;;;;;;5035267;28;20186;-53
2020/12/15 06:36:55;;;;;;;29.10;20.83;;;4.40;99.90;;;;;;5034798;28;20222;-59
2020/12/15 06:39:21;;;;;;;26.57;19.30;;;4.50;99.90;;;;;;5040032;28;20195;-57
2020/12/15 06:41:57;;;;;;;26.50;19.47;;;4.40;99.90;;;;;;5054220;28;20171;-54
2020/12/15 06:44:36;;;;;;;27.60;19.20;;;4.50;99.90;;;;;;5044869;28;20555;-56
2020/12/15 06:47:04;;;;;;;25.37;18.43;;;4.50;99.90;;;;;;5034504;28;20205;-52
2020/12/15 06:49:35;;;;;;;24.63;17.87;;;4.60;99.90;;;;;;5033691;28;20218;-56
2020/12/15 06:52:04;;;;;;;24.87;18.27;;;4.50;99.90;;;;;;5034512;28;20185;-56
2020/12/15 06:54:31;;;;;;;23.77;17.67;;;4.50;99.90;;;;;;5048422;28;20183;-57
2020/12/15 06:57:06;;;;;;;24.47;17.30;;;4.50;99.90;;;;;;5037031;28;20214;-59
2020/12/15 06:59:40;;;;;;;24.63;17.27;;;4.50;99.90;;;;;;5032382;28;20179;-60
2020/12/15 07:02:15;;;;;;;23.40;17.47;;;4.60;99.90;;;;;;5051330;28;20220;-52
2020/12/15 07:04:42;;;;;;;24.97;18.17;;;4.60;99.90;;;;;;5043178;28;20710;-55
2020/12/15 07:07:08;;;;;;;23.37;16.80;;;4.60;99.90;;;;;;5044245;28;20206;-57
2020/12/15 07:09:34;;;;;;;23.13;16.60;;;4.60;99.90;;;;;;5052966;28;20184;-60
2020/12/15 07:12:02;;;;;;;26.73;16.33;;;4.60;99.90;;;;;;5054098;28;20191;-55
2020/12/15 07:14:28;;;;;;;22.37;15.83;;;4.60;99.90;;;;;;5052723;28;20186;-53
2020/12/15 07:16:55;;;;;;;23.63;17.60;;;4.70;99.90;;;;;;5034413;28;20192;-62
2020/12/15 07:19:24;;;;;;;25.33;17.53;;;4.70;99.90;;;;;;5045548;28;20201;-62
2020/12/15 07:21:51;;;;;;;22.97;16.37;;;4.80;99.90;;;;;;5050106;28;20282;-54
2020/12/15 07:24:16;;;;;;;22.77;16.03;;;4.80;99.90;;;;;;5033490;28;20214;-57
2020/12/15 07:26:43;;;;;;;26.67;17.00;;;4.70;99.90;;;;;;5033921;28;20188;-52
2020/12/15 07:29:08;;;;;;;22.77;17.10;;;4.70;99.90;;;;;;5015712;28;20176;-54
2020/12/15 07:31:35;;;;;;;24.93;17.47;;;4.60;99.90;;;;;;5033936;28;20172;-51
2020/12/15 07:34:09;;;;;;;25.70;18.40;;;4.60;99.90;;;;;;5034564;28;20171;-62
2020/12/15 07:36:37;;;;;;;24.10;18.53;;;4.70;99.90;;;;;;5034047;28;20179;-53
2020/12/15 07:39:06;;;;;;;25.23;18.07;;;4.80;99.90;;;;;;5034392;28;20253;-61
2020/12/15 07:41:38;;;;;;;27.90;19.87;;;4.80;99.90;;;;;;5033827;28;20178;-51
2020/12/15 07:44:08;;;;;;;27.73;19.60;;;4.70;99.90;;;;;;5034054;28;20618;-60
2020/12/15 07:46:34;;;;;;;26.97;19.70;;;4.70;99.90;;;;;;5034275;28;20176;-62
2020/12/15 07:49:00;;;;;;;27.60;20.47;;;4.60;99.90;;;;;;5033917;28;20206;-54
2020/12/15 07:51:26;;;;;;;27.77;20.73;;;4.60;99.90;;;;;;5033991;28;20628;-58
2020/12/15 07:53:53;;;;;;;28.00;20.47;;;4.50;99.90;;;;;;5033904;28;20202;-60
2020/12/15 07:56:19;;;;;;;28.23;21.17;;;4.40;99.90;;;;;;5034413;28;20631;-53
2020/12/15 07:58:49;;;;;;;26.67;20.10;;;4.30;99.90;;;;;;5038292;28;20182;-61
2020/12/15 08:01:23;;;;;;;27.60;21.33;;;4.20;99.90;;;;;;5037985;28;20640;-51
2020/12/15 08:04:20;;;;;;;31.73;24.07;;;4.20;99.90;;;;;;5037808;28;20195;-60
2020/12/15 08:06:47;;;;;;;27.80;21.07;;;4.00;99.90;;;;;;5038275;28;20195;-61
2020/12/15 08:09:15;;;;;;;32.13;26.77;;;3.90;99.90;;;;;;5037449;28;20171;-56
2020/12/15 08:11:48;;;;;;;28.07;22.30;;;3.80;99.90;;;;;;5037626;28;20202;-55
2020/12/15 08:14:17;;;;;;;29.07;21.93;;;3.70;99.90;;;;;;5037360;28;20172;-56
2020/12/15 08:16:43;;;;;;;26.53;19.67;;;3.80;99.90;;;;;;5037950;28;20199;-59
2020/12/15 08:19:10;;;;;;;30.33;21.33;;;3.90;99.90;;;;;;5037610;28;20179;-58
2020/12/15 08:21:50;;;;;;;28.00;21.20;;;3.90;99.90;;;;;;5037870;28;20179;-54
2020/12/15 08:24:21;;;;;;;26.73;19.90;;;4.00;99.90;;;;;;5037162;28;20211;-55
2020/12/15 08:26:47;;;;;;;27.60;19.67;;;4.10;99.90;;;;;;5037646;28;20261;-52
2020/12/15 08:29:13;;;;;;;24.90;20.07;;;4.20;99.90;;;;;;5037235;28;20554;-52
2020/12/15 08:31:41;;;;;;;30.07;21.60;;;4.20;99.90;;;;;;5055784;28;20635;-51
2020/12/15 08:34:15;;;;;;;27.60;20.17;;;4.20;99.90;;;;;;5057082;28;20229;-58
2020/12/15 08:36:46;;;;;;;24.60;18.80;;;4.30;99.90;;;;;;5057836;28;20237;-57
2020/12/15 08:39:13;;;;;;;25.43;18.77;;;4.30;99.90;;;;;;5057013;28;20201;-54
2020/12/15 08:41:49;;;;;;;26.17;20.30;;;4.40;99.90;;;;;;5056941;28;20203;-61
2020/12/15 08:44:18;;;;;;;23.63;18.27;;;4.30;99.90;;;;;;5057169;28;20186;-52
2020/12/15 08:46:45;;;;;;;25.63;18.27;;;4.40;99.90;;;;;;5056727;28;20186;-57
2020/12/15 08:49:12;;;;;;;24.80;19.27;;;4.40;99.90;;;;;;5056696;28;20171;-56
2020/12/15 08:51:40;;;;;;;25.23;19.60;;;4.40;99.90;;;;;;5057368;28;20174;-51
2020/12/15 08:54:06;;;;;;;24.33;18.20;;;4.40;99.90;;;;;;5056883;28;20190;-52
2020/12/15 08:56:34;;;;;;;22.73;18.13;;;4.50;99.90;;;;;;5056472;28;20250;-53
2020/12/15 08:59:09;;;;;;;23.67;18.50;;;4.60;99.90;;;;;;5056932;28;20171;-57
2020/12/15 09:01:35;;;;;;;27.27;19.53;;;4.60;99.90;;;;;;5057295;28;20178;-60
2020/12/15 09:04:00;;;;;;;26.33;20.93;;;4.60;99.90;;;;;;5056814;28;20561;-52
2020/12/15 09:06:40;;;;;;;23.40;18.40;;;4.80;99.90;;;;;;5056271;28;20175;-60
2020/12/15 09:09:07;;;;;;;24.37;18.83;;;4.80;99.90;;;;;;5056761;28;20151;-51
2020/12/15 09:11:33;;;;;;;22.13;17.77;;;4.80;99.90;;;;;;5056338;28;20191;-52
2020/12/15 09:14:04;;;;;;;21.93;17.53;;;4.70;99.90;;;;;;5056459;28;20225;-52
2020/12/15 09:16:37;;;;;;;25.03;19.23;;;4.80;99.90;;;;;;5056494;28;20266;-53
2020/12/15 09:19:13;;;;;;;27.13;19.23;;;4.80;99.90;;;;;;5056387;28;20690;-58
2020/12/15 09:21:42;;;;;;;23.67;18.33;;;4.80;99.90;;;;;;5056947;28;20210;-61
2020/12/15 09:24:09;;;;;;;21.47;16.90;;;4.90;99.90;;;;;;5055830;28;20194;-56
2020/12/15 09:26:38;;;;;;;20.17;16.17;;;4.80;99.90;;;;;;5056002;28;20237;-57
2020/12/15 09:29:11;;;;;;;20.27;16.73;;;4.90;99.90;;;;;;5056344;28;20179;-61
2020/12/15 09:31:40;;;;;;;21.87;17.57;;;5.00;99.90;;;;;;5056139;28;20175;-51
2020/12/15 09:34:06;;;;;;;20.00;16.17;;;5.10;99.90;;;;;;5055939;28;20221;-52
2020/12/15 09:36:32;;;;;;;19.87;16.00;;;5.30;99.90;;;;;;5055858;28;20263;-58
2020/12/15 09:38:57;;;;;;;20.87;17.03;;;5.30;99.90;;;;;;5055996;28;20261;-51
2020/12/15 09:41:23;;;;;;;21.80;17.33;;;5.20;99.90;;;;;;5056038;28;20213;-58
2020/12/15 09:43:49;;;;;;;21.63;17.60;;;5.20;99.90;;;;;;5056326;28;20205;-61
2020/12/15 09:46:15;;;;;;;20.20;16.30;;;5.10;99.90;;;;;;5055586;28;20167;-54
2020/12/15 09:48:40;;;;;;;21.17;16.40;;;5.20;99.90;;;;;;5055641;28;20282;-51
2020/12/15 09:51:06;;;;;;;23.50;17.53;;;5.30;99.90;;;;;;5055848;28;20182;-59
2020/12/15 09:53:32;;;;;;;20.87;16.33;;;5.30;99.90;;;;;;5055857;28;20233;-59
2020/12/15 09:55:58;;;;;;;20.90;17.03;;;5.30;99.90;;;;;;5055641;28;20174;-60
2020/12/15 09:58:23;;;;;;;21.40;17.00;;;5.30;99.90;;;;;;5055744;28;20218;-51
2020/12/15 10:00:49;;;;;;;21.43;16.30;;;5.40;99.90;;;;;;5055731;28;20631;-53
2020/12/15 10:03:15;;;;;;;20.17;16.70;;;5.50;99.90;;;;;;5055834;28;20209;-54
2020/12/15 10:05:41;;;;;;;21.43;17.10;;;5.60;99.90;;;;;;5055129;28;20203;-52
2020/12/15 10:08:07;;;;;;;19.50;15.70;;;5.60;99.90;;;;;;5056057;28;20240;-61
2020/12/15 10:10:32;;;;;;;21.00;16.27;;;5.70;99.90;;;;;;5055080;28;20187;-59
2020/12/15 10:12:58;;;;;;;21.07;16.07;;;5.80;99.90;;;;;;5055483;28;20237;-53
2020/12/15 10:15:24;;;;;;;19.13;14.70;;;5.80;99.90;;;;;;5054933;28;20229;-51
2020/12/15 10:17:50;;;;;;;17.93;14.53;;;5.80;99.90;;;;;;5055759;28;20682;-55
2020/12/15 10:20:15;;;;;;;18.27;14.23;;;5.80;99.90;;;;;;5054944;28;20179;-56
2020/12/15 10:22:41;;;;;;;19.70;15.20;;;5.80;99.90;;;;;;5055626;28;20269;-61
2020/12/15 10:25:07;;;;;;;19.43;15.57;;;5.80;99.90;;;;;;5054805;28;20213;-61
2020/12/15 10:27:32;;;;;;;20.27;15.83;;;5.90;99.90;;;;;;5055119;28;20191;-54
2020/12/15 10:29:58;;;;;;;18.53;15.50;;;5.90;99.90;;;;;;5055315;28;20195;-59
2020/12/15 10:32:24;;;;;;;19.67;15.70;;;5.70;99.90;;;;;;5055318;28;20224;-59
2020/12/15 10:34:51;;;;;;;21.40;15.97;;;5.70;99.90;;;;;;5054949;28;20175;-58
2020/12/15 10:37:17;;;;;;;20.40;15.97;;;5.60;99.90;;;;;;5035502;28;20287;-53
2020/12/15 10:39:43;;;;;;;19.23;15.83;;;6.10;99.90;;;;;;5034650;28;20517;-53
2020/12/15 10:42:09;;;;;;;22.77;16.93;;;5.50;99.90;;;;;;5034518;28;20175;-52
2020/12/15 10:44:34;;;;;;;19.53;16.07;;;5.50;99.90;;;;;;5034486;28;20199;-60
2020/12/15 10:47:01;;;;;;;19.70;15.07;;;5.60;99.90;;;;;;5034749;28;20322;-52
2020/12/15 10:49:27;;;;;;;19.60;15.60;;;5.70;99.90;;;;;;5034490;28;20179;-62
2020/12/15 10:51:53;;;;;;;19.00;14.90;;;5.80;99.90;;;;;;5035211;28;20254;-51
2020/12/15 10:54:19;;;;;;;19.47;14.90;;;6.00;99.90;;;;;;5034314;28;20687;-60
2020/12/15 10:56:44;;;;;;;20.57;15.60;;;6.30;99.90;;;;;;5034861;28;20582;-61
2020/12/15 10:59:10;;;;;;;19.17;15.77;;;6.50;99.90;;;;;;5034574;28;20180;-54
2020/12/15 11:01:35;;;;;;;19.23;15.57;;;6.60;99.90;;;;;;5034489;28;20249;-51
2020/12/15 11:04:01;;;;;;;18.47;14.90;;;6.70;99.90;;;;;;5034779;28;20313;-61
2020/12/15 11:06:27;;;;;;;19.37;15.50;;;6.50;99.90;;;;;;5033518;28;20647;-60
2020/12/15 11:08:53;;;;;;;18.67;15.10;;;6.40;99.90;;;;;;5034454;28;20176;-59
2020/12/15 11:11:19;;;;;;;17.90;14.63;;;6.40;99.90;;;;;;5034387;28;20234;-54
2020/12/15 11:13:46;;;;;;;18.33;15.37;;;6.50;99.90;;;;;;5033939;28;20230;-58
2020/12/15 11:16:12;;;;;;;19.23;15.13;;;6.50;99.90;;;;;;5034115;28;20175;-51
2020/12/15 11:18:37;;;;;;;18.73;14.77;;;6.40;99.90;;;;;;5034881;28;20585;-53
2020/12/15 11:21:03;;;;;;;19.13;15.67;;;6.30;99.90;;;;;;5034726;28;20554;-56
2020/12/15 11:23:28;;;;;;;20.73;17.63;;;6.30;99.90;;;;;;5034085;28;20175;-59
2020/12/15 11:25:54;;;;;;;18.30;14.77;;;6.40;99.90;;;;;;5034111;28;20198;-52
2020/12/15 11:28:19;;;;;;;17.87;14.40;;;6.60;99.90;;;;;;5034185;28;20196;-53
2020/12/15 11:30:45;;;;;;;18.87;15.07;;;6.70;99.90;;;;;;5034107;28;20535;-51
2020/12/15 11:33:11;;;;;;;19.07;14.80;;;6.70;99.90;;;;;;5034489;28;20261;-55
2020/12/15 11:35:37;;;;;;;16.80;13.50;;;6.70;99.90;;;;;;5033810;28;20199;-58
2020/12/15 11:38:04;;;;;;;18.63;15.37;;;6.80;99.90;;;;;;5034055;28;20208;-55
2020/12/15 11:40:30;;;;;;;17.00;13.77;;;7.00;99.90;;;;;;5034096;28;20670;-57
2020/12/15 11:42:56;;;;;;;17.63;14.30;;;7.20;99.90;;;;;;5034336;28;20214;-59
2020/12/15 11:45:23;;;;;;;16.70;13.27;;;7.40;99.90;;;;;;5033672;28;20215;-62
2020/12/15 11:47:49;;;;;;;20.00;15.40;;;7.50;99.90;;;;;;5034045;28;20223;-53
2020/12/15 11:50:15;;;;;;;17.93;13.73;;;7.60;99.90;;;;;;5033891;28;20164;-53
2020/12/15 11:52:40;;;;;;;19.03;15.47;;;7.50;99.90;;;;;;5034028;28;20178;-52
2020/12/15 11:55:06;;;;;;;18.90;14.80;;;7.40;99.90;;;;;;5033608;28;20505;-61
2020/12/15 11:57:32;;;;;;;17.97;14.10;;;7.50;99.90;;;;;;5033700;28;20192;-51
2020/12/15 11:59:58;;;;;;;20.40;16.20;;;7.50;99.90;;;;;;5034148;28;20550;-51
2020/12/15 12:02:23;;;;;;;19.57;16.00;;;7.60;99.90;;;;;;5034390;28;20176;-56
2020/12/15 12:04:49;;;;;;;18.93;15.27;;;7.70;99.90;;;;;;5034181;28;20226;-52
2020/12/15 12:07:14;;;;;;;18.43;14.87;;;7.70;99.90;;;;;;5033702;28;20261;-60
2020/12/15 12:09:40;;;;;;;19.73;15.20;;;7.60;99.90;;;;;;5033427;28;20179;-61
2020/12/15 12:12:06;;;;;;;18.47;14.90;;;7.50;99.90;;;;;;5033471;28;20200;-59
2020/12/15 12:14:31;;;;;;;18.83;15.27;;;7.50;99.90;;;;;;5033632;28;20180;-55
2020/12/15 12:16:57;;;;;;;20.87;16.00;;;7.60;99.90;;;;;;5033509;28;20694;-57
2020/12/15 12:19:23;;;;;;;24.53;18.57;;;7.60;99.90;;;;;;5034420;28;20179;-52
2020/12/15 12:21:48;;;;;;;21.03;16.07;;;7.60;99.90;;;;;;5033527;28;20249;-51
2020/12/15 12:24:14;;;;;;;16.80;14.30;;;7.70;99.90;;;;;;5033370;28;20200;-61
2020/12/15 12:26:39;;;;;;;15.37;12.50;;;7.70;99.90;;;;;;5033214;28;20195;-54
2020/12/15 12:29:05;;;;;;;17.93;14.60;;;7.60;99.90;;;;;;5033408;28;20203;-54
2020/12/15 12:31:30;;;;;;;17.80;14.10;;;7.50;99.90;;;;;;5033415;28;20180;-61
2020/12/15 12:33:56;;;;;;;19.90;15.63;;;7.40;99.90;;;;;;5034052;28;20267;-60
2020/12/15 12:36:22;;;;;;;18.60;14.93;;;7.40;99.90;;;;;;5033370;28;20190;-60
2020/12/15 12:38:48;;;;;;;30.80;21.90;;;7.50;99.90;;;;;;5033766;28;20184;-51
2020/12/15 12:41:16;;;;;;;21.90;17.03;;;7.50;99.90;;;;;;5033536;28;20183;-60
2020/12/15 12:43:43;;;;;;;17.80;14.57;;;7.50;99.90;;;;;;5036839;28;20187;-55